N2231F KCLW-KISM
Flight info
| Callsign | N2231F |
|---|---|
| Flight time | 0h 57m |
| Altitude | VFR |
| Route | |
| Aircraft | C172/L-VGD/C |
Departure
| Time | 2026-04-23 23:04 |
|---|---|
| Airport | Clearwater Air Park (KCLW) |
Arrival
| Time | 2026-04-24 00:01 |
|---|---|
| Airport | Kissimmee Gateway Airport (KISM) |
| Time | Latitude | Longitude | Altitude | Speed | Heading |
|---|---|---|---|---|---|
| 2026-04-23 23:04 | 28.02430 | -82.77034 | 2327 ft | 80 kts | 355° |
| 2026-04-23 23:04 | 28.03027 | -82.77119 | 2380 ft | 88 kts | 13° |
| 2026-04-23 23:04 | 28.03438 | -82.76725 | 2387 ft | 80 kts | 85° |
| 2026-04-23 23:04 | 28.03379 | -82.76135 | 2473 ft | 73 kts | 88° |
| 2026-04-23 23:05 | 28.03359 | -82.75522 | 2496 ft | 83 kts | 93° |
| 2026-04-23 23:05 | 28.03308 | -82.74824 | 2493 ft | 92 kts | 95° |
| 2026-04-23 23:05 | 28.03247 | -82.74073 | 2490 ft | 96 kts | 95° |
| 2026-04-23 23:05 | 28.03188 | -82.73314 | 2490 ft | 98 kts | 95° |
| 2026-04-23 23:06 | 28.03131 | -82.72544 | 2490 ft | 98 kts | 94° |
| 2026-04-23 23:06 | 28.03076 | -82.71769 | 2491 ft | 98 kts | 95° |
| 2026-04-23 23:06 | 28.03024 | -82.70996 | 2490 ft | 98 kts | 95° |
| 2026-04-23 23:06 | 28.02971 | -82.70222 | 2491 ft | 98 kts | 95° |
| 2026-04-23 23:07 | 28.02920 | -82.69448 | 2491 ft | 97 kts | 94° |
| 2026-04-23 23:07 | 28.02870 | -82.68678 | 2490 ft | 97 kts | 94° |
| 2026-04-23 23:07 | 28.02821 | -82.67909 | 2491 ft | 97 kts | 94° |
| 2026-04-23 23:07 | 28.02772 | -82.67145 | 2489 ft | 97 kts | 94° |
| 2026-04-23 23:08 | 28.02723 | -82.66383 | 2489 ft | 97 kts | 94° |
| 2026-04-23 23:08 | 28.02674 | -82.65611 | 2488 ft | 97 kts | 95° |
| 2026-04-23 23:08 | 28.02625 | -82.64845 | 2489 ft | 97 kts | 94° |
| 2026-04-23 23:08 | 28.02577 | -82.64073 | 2489 ft | 97 kts | 94° |
| 2026-04-23 23:09 | 28.02530 | -82.63315 | 2489 ft | 97 kts | 94° |
| 2026-04-23 23:09 | 28.02483 | -82.62545 | 2490 ft | 98 kts | 94° |
| 2026-04-23 23:09 | 28.02435 | -82.61769 | 2488 ft | 98 kts | 94° |
| 2026-04-23 23:09 | 28.02387 | -82.61003 | 2486 ft | 97 kts | 94° |
| 2026-04-23 23:10 | 28.02356 | -82.60491 | 2487 ft | 97 kts | 94° |
| 2026-04-23 23:10 | 28.02061 | -82.59557 | 2489 ft | 98 kts | 128° |
| 2026-04-23 23:10 | 28.01559 | -82.59012 | 2488 ft | 99 kts | 133° |
| 2026-04-23 23:10 | 28.01042 | -82.58500 | 2487 ft | 99 kts | 134° |
| 2026-04-23 23:11 | 28.00512 | -82.57980 | 2487 ft | 99 kts | 134° |
| 2026-04-23 23:11 | 27.99983 | -82.57455 | 2487 ft | 100 kts | 134° |
| 2026-04-23 23:11 | 27.99466 | -82.56938 | 2486 ft | 99 kts | 134° |
| 2026-04-23 23:11 | 27.98965 | -82.56438 | 2486 ft | 99 kts | 134° |
| 2026-04-23 23:12 | 27.98436 | -82.55911 | 2486 ft | 99 kts | 134° |
| 2026-04-23 23:12 | 27.97979 | -82.55336 | 2484 ft | 97 kts | 112° |
| 2026-04-23 23:12 | 27.97833 | -82.54589 | 2486 ft | 96 kts | 95° |
| 2026-04-23 23:12 | 27.97790 | -82.53833 | 2487 ft | 96 kts | 93° |
| 2026-04-23 23:13 | 27.97765 | -82.53071 | 2486 ft | 96 kts | 92° |
| 2026-04-23 23:13 | 27.97749 | -82.52306 | 2485 ft | 96 kts | 91° |
| 2026-04-23 23:13 | 27.97741 | -82.51545 | 2485 ft | 96 kts | 91° |
| 2026-04-23 23:13 | 27.97738 | -82.50779 | 2485 ft | 96 kts | 90° |
| 2026-04-23 23:14 | 27.97740 | -82.50026 | 2484 ft | 96 kts | 90° |
| 2026-04-23 23:14 | 27.97745 | -82.49254 | 2485 ft | 96 kts | 90° |
| 2026-04-23 23:14 | 27.97752 | -82.48496 | 2485 ft | 96 kts | 90° |
| 2026-04-23 23:14 | 27.97761 | -82.47736 | 2485 ft | 96 kts | 90° |
| 2026-04-23 23:15 | 27.97771 | -82.46976 | 2485 ft | 96 kts | 90° |
| 2026-04-23 23:15 | 27.97783 | -82.46210 | 2486 ft | 96 kts | 90° |
| 2026-04-23 23:15 | 27.97796 | -82.45452 | 2486 ft | 97 kts | 90° |
| 2026-04-23 23:15 | 27.97809 | -82.44685 | 2485 ft | 96 kts | 90° |
| 2026-04-23 23:16 | 27.97823 | -82.43922 | 2484 ft | 96 kts | 90° |
| 2026-04-23 23:16 | 27.97837 | -82.43164 | 2485 ft | 96 kts | 90° |
| 2026-04-23 23:16 | 27.97851 | -82.42401 | 2485 ft | 96 kts | 90° |
| 2026-04-23 23:16 | 27.97865 | -82.41653 | 2485 ft | 95 kts | 90° |
| 2026-04-23 23:17 | 27.97878 | -82.40894 | 2485 ft | 95 kts | 90° |
| 2026-04-23 23:17 | 27.97892 | -82.40145 | 2486 ft | 95 kts | 89° |
| 2026-04-23 23:17 | 27.97906 | -82.39388 | 2486 ft | 95 kts | 89° |
| 2026-04-23 23:17 | 27.97921 | -82.38634 | 2485 ft | 95 kts | 89° |
| 2026-04-23 23:18 | 27.97936 | -82.37883 | 2487 ft | 96 kts | 90° |
| 2026-04-23 23:18 | 27.97950 | -82.37122 | 2486 ft | 96 kts | 90° |
| 2026-04-23 23:18 | 27.97965 | -82.36367 | 2487 ft | 96 kts | 90° |
| 2026-04-23 23:18 | 27.97979 | -82.35606 | 2486 ft | 96 kts | 89° |
| 2026-04-23 23:19 | 27.97994 | -82.34843 | 2488 ft | 96 kts | 90° |
| 2026-04-23 23:19 | 27.98008 | -82.34084 | 2490 ft | 96 kts | 90° |
| 2026-04-23 23:19 | 27.98023 | -82.33322 | 2488 ft | 96 kts | 90° |
| 2026-04-23 23:19 | 27.98037 | -82.32561 | 2491 ft | 96 kts | 91° |
| 2026-04-23 23:20 | 27.98051 | -82.31807 | 2492 ft | 95 kts | 90° |
| 2026-04-23 23:20 | 27.98065 | -82.31047 | 2490 ft | 96 kts | 90° |
| 2026-04-23 23:20 | 27.98080 | -82.30302 | 2564 ft | 91 kts | 89° |
| 2026-04-23 23:20 | 27.98096 | -82.29588 | 2686 ft | 90 kts | 90° |
| 2026-04-23 23:21 | 27.98112 | -82.28877 | 2775 ft | 91 kts | 90° |
| 2026-04-23 23:21 | 27.98128 | -82.28153 | 2849 ft | 92 kts | 90° |
| 2026-04-23 23:21 | 27.98143 | -82.27419 | 2924 ft | 95 kts | 90° |
| 2026-04-23 23:21 | 27.98158 | -82.26644 | 2981 ft | 98 kts | 90° |
| 2026-04-23 23:22 | 27.98172 | -82.25853 | 2990 ft | 103 kts | 90° |
| 2026-04-23 23:22 | 27.98184 | -82.25047 | 2989 ft | 99 kts | 90° |
| 2026-04-23 23:22 | 27.98196 | -82.24278 | 2989 ft | 95 kts | 90° |
| 2026-04-23 23:22 | 27.98209 | -82.23533 | 2991 ft | 94 kts | 90° |
| 2026-04-23 23:23 | 27.98222 | -82.22792 | 2992 ft | 95 kts | 90° |
| 2026-04-23 23:23 | 27.98235 | -82.22036 | 2993 ft | 95 kts | 90° |
| 2026-04-23 23:23 | 27.98249 | -82.21288 | 2992 ft | 95 kts | 91° |
| 2026-04-23 23:23 | 27.98262 | -82.20538 | 2993 ft | 95 kts | 90° |
| 2026-04-23 23:24 | 27.98275 | -82.19786 | 2991 ft | 95 kts | 90° |
| 2026-04-23 23:24 | 27.98288 | -82.19038 | 2991 ft | 95 kts | 90° |
| 2026-04-23 23:24 | 27.98302 | -82.18280 | 2992 ft | 96 kts | 90° |
| 2026-04-23 23:24 | 27.98316 | -82.17515 | 2994 ft | 96 kts | 90° |
| 2026-04-23 23:25 | 27.98329 | -82.16753 | 2995 ft | 96 kts | 91° |
| 2026-04-23 23:25 | 27.98343 | -82.15997 | 2994 ft | 96 kts | 91° |
| 2026-04-23 23:25 | 27.98357 | -82.15241 | 2994 ft | 96 kts | 91° |
| 2026-04-23 23:25 | 27.98370 | -82.14483 | 2994 ft | 96 kts | 91° |
| 2026-04-23 23:26 | 27.98383 | -82.13734 | 2994 ft | 95 kts | 91° |
| 2026-04-23 23:26 | 27.98396 | -82.12982 | 2993 ft | 95 kts | 90° |
| 2026-04-23 23:26 | 27.98409 | -82.12220 | 2992 ft | 95 kts | 90° |
| 2026-04-23 23:26 | 27.98422 | -82.11466 | 2992 ft | 95 kts | 90° |
| 2026-04-23 23:27 | 27.98436 | -82.10716 | 2993 ft | 95 kts | 91° |
| 2026-04-23 23:27 | 27.98449 | -82.09967 | 2993 ft | 95 kts | 90° |
| 2026-04-23 23:27 | 27.98462 | -82.09209 | 2994 ft | 95 kts | 90° |
| 2026-04-23 23:27 | 27.98476 | -82.08450 | 2994 ft | 96 kts | 90° |
| 2026-04-23 23:28 | 27.98489 | -82.07691 | 2996 ft | 96 kts | 90° |
| 2026-04-23 23:28 | 27.98502 | -82.06930 | 2996 ft | 96 kts | 90° |
| 2026-04-23 23:28 | 27.98515 | -82.06174 | 2996 ft | 97 kts | 90° |
| 2026-04-23 23:28 | 27.98528 | -82.05399 | 2995 ft | 96 kts | 90° |
| 2026-04-23 23:29 | 27.98541 | -82.04642 | 2997 ft | 96 kts | 90° |
| 2026-04-23 23:29 | 27.98553 | -82.03883 | 2995 ft | 95 kts | 91° |
| 2026-04-23 23:29 | 27.98566 | -82.03129 | 2995 ft | 95 kts | 90° |
| 2026-04-23 23:29 | 27.98579 | -82.02376 | 2993 ft | 95 kts | 90° |
| 2026-04-23 23:30 | 27.98606 | -82.01627 | 2994 ft | 96 kts | 81° |
| 2026-04-23 23:30 | 27.98881 | -82.00934 | 2997 ft | 97 kts | 66° |
| 2026-04-23 23:30 | 27.99225 | -82.00258 | 2996 ft | 98 kts | 64° |
| 2026-04-23 23:30 | 27.99571 | -81.99592 | 2996 ft | 99 kts | 64° |
| 2026-04-23 23:31 | 27.99926 | -81.98914 | 2999 ft | 99 kts | 64° |
| 2026-04-23 23:31 | 28.00283 | -81.98233 | 3000 ft | 99 kts | 64° |
| 2026-04-23 23:31 | 28.00637 | -81.97559 | 2997 ft | 99 kts | 64° |
| 2026-04-23 23:31 | 28.00993 | -81.96884 | 2997 ft | 99 kts | 64° |
| 2026-04-23 23:32 | 28.01351 | -81.96205 | 2997 ft | 99 kts | 64° |
| 2026-04-23 23:32 | 28.01706 | -81.95531 | 2997 ft | 99 kts | 64° |
| 2026-04-23 23:32 | 28.02057 | -81.94869 | 3000 ft | 99 kts | 65° |
| 2026-04-23 23:32 | 28.02414 | -81.94190 | 2997 ft | 99 kts | 64° |
| 2026-04-23 23:33 | 28.02766 | -81.93523 | 2998 ft | 99 kts | 64° |
| 2026-04-23 23:33 | 28.03122 | -81.92847 | 2999 ft | 99 kts | 64° |
| 2026-04-23 23:33 | 28.03482 | -81.92168 | 2999 ft | 99 kts | 64° |
| 2026-04-23 23:33 | 28.03836 | -81.91499 | 2999 ft | 99 kts | 64° |
| 2026-04-23 23:34 | 28.04195 | -81.90823 | 3000 ft | 99 kts | 64° |
| 2026-04-23 23:34 | 28.04553 | -81.90149 | 2997 ft | 99 kts | 64° |
| 2026-04-23 23:34 | 28.04910 | -81.89477 | 2996 ft | 99 kts | 63° |
| 2026-04-23 23:34 | 28.05269 | -81.88802 | 2998 ft | 99 kts | 64° |
| 2026-04-23 23:35 | 28.05625 | -81.88129 | 2998 ft | 99 kts | 64° |
| 2026-04-23 23:35 | 28.05979 | -81.87460 | 2998 ft | 98 kts | 64° |
| 2026-04-23 23:35 | 28.06328 | -81.86800 | 3000 ft | 98 kts | 64° |
| 2026-04-23 23:35 | 28.06681 | -81.86131 | 3001 ft | 98 kts | 64° |
| 2026-04-23 23:36 | 28.07031 | -81.85465 | 2999 ft | 98 kts | 64° |
| 2026-04-23 23:36 | 28.07384 | -81.84796 | 2999 ft | 99 kts | 64° |
| 2026-04-23 23:36 | 28.07691 | -81.84106 | 2999 ft | 97 kts | 77° |
| 2026-04-23 23:36 | 28.07825 | -81.83348 | 2997 ft | 96 kts | 83° |
| 2026-04-23 23:37 | 28.07924 | -81.82597 | 2998 ft | 96 kts | 87° |
| 2026-04-23 23:37 | 28.07861 | -81.81841 | 2998 ft | 96 kts | 102° |
| 2026-04-23 23:37 | 28.07708 | -81.81106 | 2985 ft | 97 kts | 104° |
| 2026-04-23 23:37 | 28.07546 | -81.80376 | 2966 ft | 97 kts | 104° |
| 2026-04-23 23:38 | 28.07379 | -81.79623 | 2963 ft | 96 kts | 104° |
| 2026-04-23 23:38 | 28.07217 | -81.78896 | 2964 ft | 95 kts | 104° |
| 2026-04-23 23:38 | 28.07056 | -81.78172 | 2964 ft | 94 kts | 104° |
| 2026-04-23 23:38 | 28.06894 | -81.77447 | 2964 ft | 94 kts | 104° |
| 2026-04-23 23:39 | 28.06734 | -81.76731 | 2966 ft | 94 kts | 104° |
| 2026-04-23 23:39 | 28.06572 | -81.76009 | 2967 ft | 93 kts | 104° |
| 2026-04-23 23:39 | 28.06413 | -81.75298 | 2970 ft | 94 kts | 104° |
| 2026-04-23 23:39 | 28.06254 | -81.74567 | 2973 ft | 93 kts | 104° |
| 2026-04-23 23:40 | 28.06099 | -81.73856 | 2976 ft | 94 kts | 104° |
| 2026-04-23 23:40 | 28.05945 | -81.73134 | 2979 ft | 94 kts | 104° |
| 2026-04-23 23:40 | 28.05793 | -81.72406 | 2981 ft | 94 kts | 104° |
| 2026-04-23 23:40 | 28.05640 | -81.71679 | 2979 ft | 94 kts | 104° |
| 2026-04-23 23:41 | 28.05485 | -81.70954 | 2977 ft | 95 kts | 104° |
| 2026-04-23 23:41 | 28.05327 | -81.70221 | 2973 ft | 94 kts | 104° |
| 2026-04-23 23:41 | 28.05172 | -81.69504 | 2971 ft | 94 kts | 104° |
| 2026-04-23 23:41 | 28.05015 | -81.68783 | 2970 ft | 94 kts | 104° |
| 2026-04-23 23:42 | 28.04857 | -81.68057 | 2970 ft | 94 kts | 104° |
| 2026-04-23 23:42 | 28.04699 | -81.67334 | 2972 ft | 94 kts | 104° |
| 2026-04-23 23:42 | 28.04540 | -81.66612 | 2972 ft | 94 kts | 104° |
| 2026-04-23 23:42 | 28.04384 | -81.65896 | 2972 ft | 94 kts | 104° |
| 2026-04-23 23:43 | 28.04226 | -81.65176 | 2970 ft | 94 kts | 104° |
| 2026-04-23 23:43 | 28.04070 | -81.64457 | 2969 ft | 94 kts | 104° |
| 2026-04-23 23:43 | 28.03914 | -81.63731 | 2970 ft | 94 kts | 104° |
| 2026-04-23 23:43 | 28.03760 | -81.63004 | 2971 ft | 94 kts | 104° |
| 2026-04-23 23:44 | 28.03604 | -81.62274 | 2970 ft | 94 kts | 104° |
| 2026-04-23 23:44 | 28.03449 | -81.61549 | 2971 ft | 94 kts | 103° |
| 2026-04-23 23:44 | 28.03296 | -81.60833 | 2972 ft | 94 kts | 104° |
| 2026-04-23 23:44 | 28.03142 | -81.60113 | 2973 ft | 93 kts | 104° |
| 2026-04-23 23:45 | 28.02989 | -81.59396 | 2974 ft | 94 kts | 104° |
| 2026-04-23 23:45 | 28.02835 | -81.58676 | 2976 ft | 94 kts | 104° |
| 2026-04-23 23:45 | 28.02681 | -81.57958 | 2976 ft | 94 kts | 104° |
| 2026-04-23 23:45 | 28.02528 | -81.57237 | 2975 ft | 94 kts | 104° |
| 2026-04-23 23:46 | 28.02373 | -81.56508 | 2975 ft | 94 kts | 104° |
| 2026-04-23 23:46 | 28.02218 | -81.55779 | 2979 ft | 94 kts | 104° |
| 2026-04-23 23:46 | 28.02067 | -81.55060 | 2977 ft | 95 kts | 104° |
| 2026-04-23 23:46 | 28.01911 | -81.54322 | 2977 ft | 95 kts | 103° |
| 2026-04-23 23:47 | 28.02024 | -81.53594 | 2971 ft | 100 kts | 61° |
| 2026-04-23 23:47 | 28.02515 | -81.53018 | 2972 ft | 101 kts | 53° |
| 2026-04-23 23:47 | 28.02993 | -81.52432 | 2971 ft | 101 kts | 54° |
| 2026-04-23 23:47 | 28.03471 | -81.51846 | 2971 ft | 101 kts | 54° |
| 2026-04-23 23:48 | 28.03956 | -81.51257 | 2968 ft | 101 kts | 52° |
| 2026-04-23 23:48 | 28.04578 | -81.50859 | 2969 ft | 106 kts | 26° |
| 2026-04-23 23:48 | 28.05292 | -81.50607 | 2969 ft | 107 kts | 24° |
| 2026-04-23 23:48 | 28.06010 | -81.50366 | 2970 ft | 106 kts | 24° |
| 2026-04-23 23:49 | 28.07444 | -81.49873 | 2973 ft | 107 kts | 24° |
| 2026-04-23 23:49 | 28.08157 | -81.49625 | 2971 ft | 107 kts | 24° |
| 2026-04-23 23:49 | 28.08870 | -81.49380 | 2977 ft | 107 kts | 23° |
| 2026-04-23 23:50 | 28.09594 | -81.49136 | 2975 ft | 108 kts | 24° |
| 2026-04-23 23:50 | 28.10322 | -81.48893 | 2978 ft | 108 kts | 24° |
| 2026-04-23 23:50 | 28.11058 | -81.48731 | 2976 ft | 112 kts | 11° |
| 2026-04-23 23:50 | 28.11850 | -81.48690 | 2972 ft | 112 kts | 9° |
| 2026-04-23 23:51 | 28.12635 | -81.48660 | 2972 ft | 112 kts | 8° |
| 2026-04-23 23:51 | 28.13409 | -81.48631 | 2973 ft | 111 kts | 8° |
| 2026-04-23 23:51 | 28.14175 | -81.48608 | 2933 ft | 105 kts | 9° |
| 2026-04-23 23:51 | 28.14900 | -81.48594 | 2805 ft | 102 kts | 9° |
| 2026-04-23 23:52 | 28.15599 | -81.48515 | 2680 ft | 98 kts | 22° |
| 2026-04-23 23:52 | 28.16255 | -81.48323 | 2559 ft | 98 kts | 24° |
| 2026-04-23 23:52 | 28.16921 | -81.48121 | 2435 ft | 98 kts | 24° |
| 2026-04-23 23:52 | 28.17590 | -81.47920 | 2310 ft | 99 kts | 24° |
| 2026-04-23 23:53 | 28.18256 | -81.47724 | 2185 ft | 99 kts | 24° |
| 2026-04-23 23:53 | 28.18926 | -81.47533 | 2058 ft | 98 kts | 24° |
| 2026-04-23 23:53 | 28.19586 | -81.47347 | 1935 ft | 97 kts | 24° |
| 2026-04-23 23:53 | 28.20257 | -81.47163 | 1808 ft | 97 kts | 24° |
| 2026-04-23 23:54 | 28.20908 | -81.46956 | 1685 ft | 96 kts | 29° |
| 2026-04-23 23:54 | 28.21548 | -81.46725 | 1559 ft | 96 kts | 29° |
| 2026-04-23 23:54 | 28.22197 | -81.46487 | 1435 ft | 97 kts | 29° |
| 2026-04-23 23:54 | 28.22841 | -81.46247 | 1312 ft | 97 kts | 28° |
| 2026-04-23 23:55 | 28.23484 | -81.46001 | 1189 ft | 97 kts | 28° |
| 2026-04-23 23:55 | 28.24124 | -81.45747 | 1100 ft | 99 kts | 28° |
| 2026-04-23 23:55 | 28.24777 | -81.45479 | 1086 ft | 97 kts | 28° |
| 2026-04-23 23:55 | 28.25403 | -81.45222 | 1084 ft | 95 kts | 29° |
| 2026-04-23 23:56 | 28.26025 | -81.44971 | 1084 ft | 93 kts | 29° |
| 2026-04-23 23:56 | 28.26637 | -81.44726 | 1081 ft | 92 kts | 26° |
| 2026-04-23 23:56 | 28.27304 | -81.44767 | 1081 ft | 101 kts | 343° |
| 2026-04-23 23:56 | 28.27931 | -81.45144 | 1082 ft | 102 kts | 336° |
| 2026-04-23 23:57 | 28.28543 | -81.45534 | 1084 ft | 98 kts | 336° |
| 2026-04-23 23:57 | 28.29102 | -81.45981 | 1081 ft | 97 kts | 327° |
| 2026-04-23 23:57 | 28.29647 | -81.46449 | 1022 ft | 100 kts | 329° |
| 2026-04-23 23:57 | 28.30237 | -81.46916 | 918 ft | 101 kts | 332° |
| 2026-04-23 23:58 | 28.30827 | -81.47348 | 840 ft | 99 kts | 334° |
| 2026-04-23 23:58 | 28.31427 | -81.47739 | 755 ft | 97 kts | 340° |
| 2026-04-23 23:58 | 28.32026 | -81.47733 | 708 ft | 80 kts | 39° |
| 2026-04-23 23:58 | 28.32336 | -81.47265 | 729 ft | 67 kts | 68° |
| 2026-04-23 23:59 | 28.32603 | -81.46832 | 771 ft | 71 kts | 59° |
| 2026-04-23 23:59 | 28.32866 | -81.46350 | 792 ft | 68 kts | 88° |
| 2026-04-23 23:59 | 28.32591 | -81.45939 | 764 ft | 77 kts | 158° |
| 2026-04-23 23:59 | 28.32056 | -81.45819 | 667 ft | 76 kts | 156° |
| 2026-04-24 00:00 | 28.31624 | -81.45602 | 578 ft | 61 kts | 144° |
| 2026-04-24 00:00 | 28.31273 | -81.45347 | 510 ft | 59 kts | 139° |
| 2026-04-24 00:00 | 28.30927 | -81.45088 | 429 ft | 59 kts | 140° |
| 2026-04-24 00:00 | 28.30575 | -81.44844 | 357 ft | 58 kts | 141° |
| 2026-04-24 00:01 | 28.30230 | -81.44596 | 271 ft | 59 kts | 142° |
| 2026-04-24 00:01 | 28.29884 | -81.44353 | 185 ft | 58 kts | 142° |
| 2026-04-24 00:01 | 28.29543 | -81.44113 | 87 ft | 51 kts | 143° |
| 2026-04-24 00:01 | 28.29304 | -81.43945 | 79 ft | 30 kts | 148° |
| 2026-04-24 00:02 | 28.29174 | -81.43850 | 79 ft | 14 kts | 146° |
| 2026-04-24 00:02 | 28.29154 | -81.43789 | 79 ft | 8 kts | 58° |
| 2026-04-24 00:02 | 28.29178 | -81.43748 | 79 ft | 3 kts | 56° |
| 2026-04-24 00:02 | 28.29220 | -81.43758 | 79 ft | 10 kts | 328° |
| 2026-04-24 00:03 | 28.29291 | -81.43807 | 79 ft | 13 kts | 328° |
| 2026-04-24 00:03 | 28.29372 | -81.43864 | 78 ft | 10 kts | 328° |
| 2026-04-24 00:03 | 28.29402 | -81.43838 | 77 ft | 7 kts | 98° |
| 2026-04-24 00:03 | 28.29381 | -81.43790 | 78 ft | 6 kts | 132° |
| 2026-04-24 00:04 | 28.29347 | -81.43759 | 78 ft | 5 kts | 135° |
| 2026-04-24 00:04 | 28.29331 | -81.43728 | 79 ft | 4 kts | 124° |
| 2026-04-24 00:04 | 28.29285 | -81.43687 | 79 ft | 9 kts | 117° |
| 2026-04-24 00:04 | 28.29290 | -81.43634 | 78 ft | 6 kts | 46° |
| 2026-04-24 00:05 | 28.29329 | -81.43632 | 78 ft | 4 kts | 307° |
| 2026-04-24 00:05 | 28.29331 | -81.43652 | 78 ft | 1 kts | 273° |
| 2026-04-24 00:05 | 28.29331 | -81.43658 | 78 ft | 0 kts | 268° |